KMRC/MRC METAR and TAF weather

Enter ICAO airport designator
Station Type Date Time Source
KMRC METAR 2018/12/13 22:15 UTC NOAA

KMRC 132215Z AUTO 13004KT 10SM FEW045 BKN055 BKN065 13/06 A3004 RMK A01


Station Type Date Time Source
KMRC Decoded METAR 2018/12/13 22:15 UTC NOAA

Columbia / Maury County, TN, United States (KMRC) 35-33N 087-11W
Dec 13, 2018 - 05:15 PM EST / 2018.12.13 2215 UTC
Wind: from the SE (130 degrees) at 5 MPH (4 KT):0
Visibility: 10 mile(s):0
Sky conditions: mostly cloudy
Temperature: 55 F (13 C)
Dew Point: 42 F (6 C)
Relative Humidity: 62%
Pressure (altimeter): 30.04 in. Hg (1017 hPa)
ob: KMRC 132215Z AUTO 13004KT 10SM FEW045 BKN055 BKN065 13/06 A3004 RMK A01
cycle: 22

Station Type Date Time Source
KMRC TAF 2009/08/31 19:45 UTC NOAA

METAR KMRC 311945Z AUTO 06008KT 10SM CLR 26/12 A3010
RMK AO1 T02550116 $


Example: see airport list